sensor_id;sensor_type;location;lat;lon;timestamp;pressure;altitude;pressure_sealevel;temperature;humidity
62031;BME280;62035;52.094;5.112;2023-05-12T00:00:13;101841.00;;;14.24;100.00
62031;BME280;62035;52.094;5.112;2023-05-12T00:02:41;101843.69;;;14.14;100.00
62031;BME280;62035;52.094;5.112;2023-05-12T00:05:09;101840.59;;;14.19;100.00
62031;BME280;62035;52.094;5.112;2023-05-12T00:07:37;101841.03;;;14.14;100.00
62031;BME280;62035;52.094;5.112;2023-05-12T00:10:05;101851.03;;;14.12;100.00
62031;BME280;62035;52.094;5.112;2023-05-12T00:12:33;101842.44;;;14.09;100.00
62031;BME280;62035;52.094;5.112;2023-05-12T00:15:03;101844.44;;;14.07;100.00
62031;BME280;62035;52.094;5.112;2023-05-12T00:17:31;101839.59;;;14.20;100.00
62031;BME280;62035;52.094;5.112;2023-05-12T00:19:58;101848.19;;;14.23;100.00
62031;BME280;62035;52.094;5.112;2023-05-12T00:22:26;101838.56;;;14.30;100.00
62031;BME280;62035;52.094;5.112;2023-05-12T00:24:53;101837.22;;;14.17;100.00
62031;BME280;62035;52.094;5.112;2023-05-12T00:27:21;101837.78;;;14.11;100.00
62031;BME280;62035;52.094;5.112;2023-05-12T00:29:49;101837.22;;;14.17;100.00
62031;BME280;62035;52.094;5.112;2023-05-12T00:32:18;101838.59;;;14.21;100.00
62031;BME280;62035;52.094;5.112;2023-05-12T00:34:45;101835.53;;;14.16;100.00
62031;BME280;62035;52.094;5.112;2023-05-12T00:37:13;101830.06;;;14.08;100.00
62031;BME280;62035;52.094;5.112;2023-05-12T00:39:40;101831.00;;;14.16;100.00
62031;BME280;62035;52.094;5.112;2023-05-12T00:42:08;101836.06;;;14.19;100.00
62031;BME280;62035;52.094;5.112;2023-05-12T00:44:36;101834.13;;;14.12;100.00
62031;BME280;62035;52.094;5.112;2023-05-12T00:47:04;101835.16;;;14.01;100.00
62031;BME280;62035;52.094;5.112;2023-05-12T00:49:34;101828.09;;;14.10;100.00
62031;BME280;62035;52.094;5.112;2023-05-12T00:52:02;101831.97;;;14.25;100.00
62031;BME280;62035;52.094;5.112;2023-05-12T00:54:31;101833.41;;;14.19;100.00
62031;BME280;62035;52.094;5.112;2023-05-12T00:56:58;101827.69;;;14.05;100.00
62031;BME280;62035;52.094;5.112;2023-05-12T00:59:26;101832.53;;;13.91;100.00
62031;BME280;62035;52.094;5.112;2023-05-12T01:01:55;101831.16;;;13.87;100.00
62031;BME280;62035;52.094;5.112;2023-05-12T01:04:23;101828.09;;;13.73;100.00
62031;BME280;62035;52.094;5.112;2023-05-12T01:06:55;101824.59;;;13.99;100.00
62031;BME280;62035;52.094;5.112;2023-05-12T01:09:26;101826.47;;;13.99;100.00
62031;BME280;62035;52.094;5.112;2023-05-12T01:11:53;101824.31;;;14.02;100.00
62031;BME280;62035;52.094;5.112;2023-05-12T01:14:21;101823.59;;;14.00;100.00
62031;BME280;62035;52.094;5.112;2023-05-12T01:16:51;101816.97;;;14.05;100.00
62031;BME280;62035;52.094;5.112;2023-05-12T01:19:31;101817.41;;;13.63;100.00
62031;BME280;62035;52.094;5.112;2023-05-12T01:22:07;101811.06;;;13.74;100.00
62031;BME280;62035;52.094;5.112;2023-05-12T01:24:41;101821.91;;;13.72;100.00
62031;BME280;62035;52.094;5.112;2023-05-12T01:27:15;101809.94;;;13.66;100.00
62031;BME280;62035;52.094;5.112;2023-05-12T01:29:45;101817.13;;;13.66;100.00
62031;BME280;62035;52.094;5.112;2023-05-12T01:32:13;101810.09;;;13.65;100.00
62031;BME280;62035;52.094;5.112;2023-05-12T01:34:42;101805.44;;;13.67;100.00
62031;BME280;62035;52.094;5.112;2023-05-12T01:37:10;101818.22;;;13.73;100.00
62031;BME280;62035;52.094;5.112;2023-05-12T01:39:38;101809.50;;;13.71;100.00
62031;BME280;62035;52.094;5.112;2023-05-12T01:42:06;101818.09;;;13.75;100.00
62031;BME280;62035;52.094;5.112;2023-05-12T01:44:35;101805.22;;;13.88;100.00
62031;BME280;62035;52.094;5.112;2023-05-12T01:47:03;101798.31;;;13.95;100.00
62031;BME280;62035;52.094;5.112;2023-05-12T01:49:34;101804.09;;;13.90;100.00
62031;BME280;62035;52.094;5.112;2023-05-12T01:52:02;101800.88;;;13.87;100.00
62031;BME280;62035;52.094;5.112;2023-05-12T01:54:30;101800.91;;;14.05;100.00
62031;BME280;62035;52.094;5.112;2023-05-12T01:56:58;101800.38;;;14.01;100.00
62031;BME280;62035;52.094;5.112;2023-05-12T01:59:26;101798.38;;;14.03;100.00
62031;BME280;62035;52.094;5.112;2023-05-12T02:01:55;101800.31;;;14.11;100.00
62031;BME280;62035;52.094;5.112;2023-05-12T02:04:22;101798.63;;;14.10;100.00
62031;BME280;62035;52.094;5.112;2023-05-12T02:06:50;101797.03;;;13.99;100.00
62031;BME280;62035;52.094;5.112;2023-05-12T02:09:17;101798.03;;;14.16;100.00
62031;BME280;62035;52.094;5.112;2023-05-12T02:11:46;101796.91;;;14.18;100.00
62031;BME280;62035;52.094;5.112;2023-05-12T02:14:13;101793.69;;;14.15;100.00
62031;BME280;62035;52.094;5.112;2023-05-12T02:16:41;101796.91;;;14.18;100.00
62031;BME280;62035;52.094;5.112;2023-05-12T02:19:10;101787.69;;;14.30;100.00
62031;BME280;62035;52.094;5.112;2023-05-12T02:21:37;101790.59;;;14.37;100.00
62031;BME280;62035;52.094;5.112;2023-05-12T02:24:05;101782.03;;;14.33;100.00
62031;BME280;62035;52.094;5.112;2023-05-12T02:26:33;101787.22;;;14.35;100.00
62031;BME280;62035;52.094;5.112;2023-05-12T02:29:01;101787.94;;;14.10;100.00
62031;BME280;62035;52.094;5.112;2023-05-12T02:31:28;101791.72;;;13.89;100.00
62031;BME280;62035;52.094;5.112;2023-05-12T02:33:56;101804.53;;;13.86;100.00
62031;BME280;62035;52.094;5.112;2023-05-12T02:36:25;101794.28;;;13.81;100.00
62031;BME280;62035;52.094;5.112;2023-05-12T02:38:52;101785.25;;;13.82;100.00
62031;BME280;62035;52.094;5.112;2023-05-12T02:41:20;101802.59;;;13.78;100.00
62031;BME280;62035;52.094;5.112;2023-05-12T02:43:47;101785.72;;;13.68;100.00
62031;BME280;62035;52.094;5.112;2023-05-12T02:46:15;101788.34;;;13.87;100.00
62031;BME280;62035;52.094;5.112;2023-05-12T02:48:43;101787.78;;;13.84;100.00
62031;BME280;62035;52.094;5.112;2023-05-12T02:51:10;101790.75;;;13.81;100.00
62031;BME280;62035;52.094;5.112;2023-05-12T02:53:39;101792.84;;;13.87;100.00
62031;BME280;62035;52.094;5.112;2023-05-12T02:56:07;101791.31;;;13.84;100.00
62031;BME280;62035;52.094;5.112;2023-05-12T02:58:34;101789.88;;;13.90;100.00
62031;BME280;62035;52.094;5.112;2023-05-12T03:01:02;101781.03;;;13.80;100.00
62031;BME280;62035;52.094;5.112;2023-05-12T03:03:29;101789.09;;;13.70;100.00
62031;BME280;62035;52.094;5.112;2023-05-12T03:05:57;101784.97;;;13.85;100.00
62031;BME280;62035;52.094;5.112;2023-05-12T03:08:25;101785.28;;;13.73;100.00
62031;BME280;62035;52.094;5.112;2023-05-12T03:10:54;101776.28;;;14.01;100.00
62031;BME280;62035;52.094;5.112;2023-05-12T03:13:22;101770.56;;;13.96;100.00
62031;BME280;62035;52.094;5.112;2023-05-12T03:15:49;101772.88;;;13.81;100.00
62031;BME280;62035;52.094;5.112;2023-05-12T03:18:17;101756.38;;;13.58;100.00
62031;BME280;62035;52.094;5.112;2023-05-12T03:20:44;101769.66;;;13.68;100.00
62031;BME280;62035;52.094;5.112;2023-05-12T03:23:12;101772.16;;;13.79;100.00
62031;BME280;62035;52.094;5.112;2023-05-12T03:25:40;101763.88;;;13.73;100.00
62031;BME280;62035;52.094;5.112;2023-05-12T03:28:09;101773.53;;;13.93;100.00
62031;BME280;62035;52.094;5.112;2023-05-12T03:30:37;101770.00;;;13.92;100.00
62031;BME280;62035;52.094;5.112;2023-05-12T03:33:05;101766.13;;;13.77;100.00
62031;BME280;62035;52.094;5.112;2023-05-12T03:35:33;101759.91;;;13.86;100.00
62031;BME280;62035;52.094;5.112;2023-05-12T03:38:00;101764.66;;;13.92;100.00
62031;BME280;62035;52.094;5.112;2023-05-12T03:40:28;101758.22;;;14.03;100.00
62031;BME280;62035;52.094;5.112;2023-05-12T03:42:55;101752.19;;;14.01;100.00
62031;BME280;62035;52.094;5.112;2023-05-12T03:45:24;101749.16;;;14.14;100.00
62031;BME280;62035;52.094;5.112;2023-05-12T03:47:52;101758.09;;;14.05;100.00
62031;BME280;62035;52.094;5.112;2023-05-12T03:50:19;101747.78;;;14.10;100.00
62031;BME280;62035;52.094;5.112;2023-05-12T03:52:47;101763.28;;;14.06;100.00
62031;BME280;62035;52.094;5.112;2023-05-12T03:55:15;101759.69;;;13.97;100.00
62031;BME280;62035;52.094;5.112;2023-05-12T03:57:42;101760.19;;;13.83;100.00
62031;BME280;62035;52.094;5.112;2023-05-12T04:00:11;101749.94;;;13.79;100.00
62031;BME280;62035;52.094;5.112;2023-05-12T04:02:40;101754.19;;;13.72;100.00
62031;BME280;62035;52.094;5.112;2023-05-12T04:05:08;101751.03;;;13.86;100.00
62031;BME280;62035;52.094;5.112;2023-05-12T04:07:36;101758.75;;;13.89;100.00
62031;BME280;62035;52.094;5.112;2023-05-12T04:10:05;101757.88;;;13.98;100.00
62031;BME280;62035;52.094;5.112;2023-05-12T04:12:33;101761.00;;;13.93;100.00
62031;BME280;62035;52.094;5.112;2023-05-12T04:15:01;101751.34;;;14.00;100.00
62031;BME280;62035;52.094;5.112;2023-05-12T04:17:29;101752.66;;;13.96;100.00
62031;BME280;62035;52.094;5.112;2023-05-12T04:19:58;101750.28;;;13.93;100.00
62031;BME280;62035;52.094;5.112;2023-05-12T04:22:26;101744.00;;;14.02;100.00
62031;BME280;62035;52.094;5.112;2023-05-12T04:24:53;101740.03;;;14.07;100.00
62031;BME280;62035;52.094;5.112;2023-05-12T04:27:21;101707.47;;;13.93;100.00
62031;BME280;62035;52.094;5.112;2023-05-12T04:29:48;101739.19;;;14.33;100.00
62031;BME280;62035;52.094;5.112;2023-05-12T04:32:16;101739.41;;;14.22;100.00
62031;BME280;62035;52.094;5.112;2023-05-12T04:34:44;101742.22;;;14.21;100.00
62031;BME280;62035;52.094;5.112;2023-05-12T04:37:14;101754.91;;;14.19;100.00
62031;BME280;62035;52.094;5.112;2023-05-12T04:39:42;101752.09;;;14.20;100.00
62031;BME280;62035;52.094;5.112;2023-05-12T04:42:09;101751.13;;;14.39;100.00
62031;BME280;62035;52.094;5.112;2023-05-12T04:44:37;101748.28;;;14.23;100.00
62031;BME280;62035;52.094;5.112;2023-05-12T04:47:04;101759.19;;;14.12;100.00
62031;BME280;62035;52.094;5.112;2023-05-12T04:49:32;101776.59;;;13.98;100.00
62031;BME280;62035;52.094;5.112;2023-05-12T04:51:59;101782.53;;;14.19;100.00
62031;BME280;62035;52.094;5.112;2023-05-12T04:54:28;101784.97;;;14.13;100.00
62031;BME280;62035;52.094;5.112;2023-05-12T04:56:57;101787.47;;;14.14;100.00
62031;BME280;62035;52.094;5.112;2023-05-12T04:59:24;101796.06;;;14.18;100.00
62031;BME280;62035;52.094;5.112;2023-05-12T05:01:52;101792.44;;;14.09;100.00
62031;BME280;62035;52.094;5.112;2023-05-12T05:04:20;101791.44;;;14.38;100.00
62031;BME280;62035;52.094;5.112;2023-05-12T05:06:47;101794.38;;;14.17;100.00
62031;BME280;62035;52.094;5.112;2023-05-12T05:09:15;101796.84;;;14.28;100.00
62031;BME280;62035;52.094;5.112;2023-05-12T05:11:44;101799.34;;;14.39;100.00
62031;BME280;62035;52.094;5.112;2023-05-12T05:14:11;101794.91;;;14.20;100.00
62031;BME280;62035;52.094;5.112;2023-05-12T05:16:39;101800.72;;;14.16;100.00
62031;BME280;62035;52.094;5.112;2023-05-12T05:19:07;101793.50;;;14.26;100.00
62031;BME280;62035;52.094;5.112;2023-05-12T05:21:34;101797.59;;;14.48;100.00
62031;BME280;62035;52.094;5.112;2023-05-12T05:24:02;101797.38;;;14.59;100.00
62031;BME280;62035;52.094;5.112;2023-05-12T05:26:30;101810.53;;;14.52;100.00
62031;BME280;62035;52.094;5.112;2023-05-12T05:28:59;101815.03;;;14.52;100.00
62031;BME280;62035;52.094;5.112;2023-05-12T05:31:27;101805.78;;;14.46;100.00
62031;BME280;62035;52.094;5.112;2023-05-12T05:33:54;101802.06;;;14.29;100.00
62031;BME280;62035;52.094;5.112;2023-05-12T05:36:22;101822.03;;;14.35;100.00
62031;BME280;62035;52.094;5.112;2023-05-12T05:38:51;101815.78;;;14.44;100.00
62031;BME280;62035;52.094;5.112;2023-05-12T05:41:18;101819.53;;;14.33;100.00
62031;BME280;62035;52.094;5.112;2023-05-12T05:43:47;101828.59;;;14.41;100.00
62031;BME280;62035;52.094;5.112;2023-05-12T05:46:16;101831.41;;;14.49;100.00
62031;BME280;62035;52.094;5.112;2023-05-12T05:48:43;101820.19;;;14.63;100.00
62031;BME280;62035;52.094;5.112;2023-05-12T05:51:11;101829.22;;;14.80;100.00
62031;BME280;62035;52.094;5.112;2023-05-12T05:53:38;101822.72;;;14.64;100.00
62031;BME280;62035;52.094;5.112;2023-05-12T05:56:06;101816.53;;;14.64;100.00
62031;BME280;62035;52.094;5.112;2023-05-12T05:58:34;101815.00;;;14.79;100.00
62031;BME280;62035;52.094;5.112;2023-05-12T06:01:03;101815.53;;;15.00;100.00
62031;BME280;62035;52.094;5.112;2023-05-12T06:03:32;101820.13;;;15.08;100.00
62031;BME280;62035;52.094;5.112;2023-05-12T06:05:59;101815.28;;;15.12;100.00
62031;BME280;62035;52.094;5.112;2023-05-12T06:08:27;101815.41;;;15.28;100.00
62031;BME280;62035;52.094;5.112;2023-05-12T06:10:55;101825.44;;;15.26;100.00
62031;BME280;62035;52.094;5.112;2023-05-12T06:13:22;101830.75;;;14.82;100.00
62031;BME280;62035;52.094;5.112;2023-05-12T06:15:50;101835.44;;;14.98;100.00
62031;BME280;62035;52.094;5.112;2023-05-12T06:18:18;101837.03;;;14.91;100.00
62031;BME280;62035;52.094;5.112;2023-05-12T06:20:47;101835.13;;;14.83;100.00
62031;BME280;62035;52.094;5.112;2023-05-12T06:23:14;101841.41;;;15.10;100.00
62031;BME280;62035;52.094;5.112;2023-05-12T06:25:42;101842.72;;;15.06;100.00
62031;BME280;62035;52.094;5.112;2023-05-12T06:28:09;101841.06;;;15.30;100.00
62031;BME280;62035;52.094;5.112;2023-05-12T06:30:38;101839.38;;;15.47;100.00
62031;BME280;62035;52.094;5.112;2023-05-12T06:33:05;101840.84;;;15.24;100.00
62031;BME280;62035;52.094;5.112;2023-05-12T06:35:33;101841.25;;;15.55;100.00
62031;BME280;62035;52.094;5.112;2023-05-12T06:38:02;101841.75;;;15.32;100.00
62031;BME280;62035;52.094;5.112;2023-05-12T06:40:30;101839.06;;;15.50;100.00
62031;BME280;62035;52.094;5.112;2023-05-12T06:42:57;101836.28;;;15.60;100.00
62031;BME280;62035;52.094;5.112;2023-05-12T06:45:25;101840.22;;;15.30;100.00
62031;BME280;62035;52.094;5.112;2023-05-12T06:47:53;101835.84;;;15.73;100.00
62031;BME280;62035;52.094;5.112;2023-05-12T06:50:22;101852.63;;;15.49;100.00
62031;BME280;62035;52.094;5.112;2023-05-12T06:52:50;101831.81;;;15.68;100.00
62031;BME280;62035;52.094;5.112;2023-05-12T06:55:19;101843.00;;;15.90;100.00
62031;BME280;62035;52.094;5.112;2023-05-12T06:57:47;101841.00;;;15.92;100.00
62031;BME280;62035;52.094;5.112;2023-05-12T07:00:17;101855.91;;;15.86;100.00
62031;BME280;62035;52.094;5.112;2023-05-12T07:02:45;101854.06;;;15.87;100.00
62031;BME280;62035;52.094;5.112;2023-05-12T07:05:12;101851.34;;;16.13;100.00
62031;BME280;62035;52.094;5.112;2023-05-12T07:07:40;101860.41;;;16.12;100.00
62031;BME280;62035;52.094;5.112;2023-05-12T07:10:08;101856.22;;;16.17;100.00
62031;BME280;62035;52.094;5.112;2023-05-12T07:12:37;101865.22;;;16.42;100.00
62031;BME280;62035;52.094;5.112;2023-05-12T07:15:06;101856.88;;;16.61;100.00
62031;BME280;62035;52.094;5.112;2023-05-12T07:17:34;101857.47;;;16.89;100.00
62031;BME280;62035;52.094;5.112;2023-05-12T07:20:03;101861.06;;;16.56;100.00
62031;BME280;62035;52.094;5.112;2023-05-12T07:22:32;101852.84;;;16.57;100.00
62031;BME280;62035;52.094;5.112;2023-05-12T07:24:59;101853.84;;;16.56;100.00
62031;BME280;62035;52.094;5.112;2023-05-12T07:27:27;101865.13;;;16.60;100.00
62031;BME280;62035;52.094;5.112;2023-05-12T07:29:57;101873.47;;;16.49;100.00
62031;BME280;62035;52.094;5.112;2023-05-12T07:32:24;101877.94;;;16.66;100.00
62031;BME280;62035;52.094;5.112;2023-05-12T07:34:52;101883.78;;;16.61;100.00
62031;BME280;62035;52.094;5.112;2023-05-12T07:37:19;101873.69;;;16.63;100.00
62031;BME280;62035;52.094;5.112;2023-05-12T07:39:47;101879.47;;;16.85;100.00
62031;BME280;62035;52.094;5.112;2023-05-12T07:42:15;101878.13;;;16.81;100.00
62031;BME280;62035;52.094;5.112;2023-05-12T07:44:43;101876.47;;;16.88;100.00
62031;BME280;62035;52.094;5.112;2023-05-12T07:47:12;101868.94;;;17.32;100.00
62031;BME280;62035;52.094;5.112;2023-05-12T07:49:40;101865.22;;;17.33;100.00
62031;BME280;62035;52.094;5.112;2023-05-12T07:52:08;101864.22;;;17.34;100.00
62031;BME280;62035;52.094;5.112;2023-05-12T07:54:35;101867.75;;;17.59;100.00
62031;BME280;62035;52.094;5.112;2023-05-12T07:57:03;101870.44;;;17.75;100.00
62031;BME280;62035;52.094;5.112;2023-05-12T07:59:31;101874.16;;;17.74;100.00
62031;BME280;62035;52.094;5.112;2023-05-12T08:01:59;101869.41;;;17.84;100.00
62031;BME280;62035;52.094;5.112;2023-05-12T08:04:28;101868.78;;;18.21;100.00
62031;BME280;62035;52.094;5.112;2023-05-12T08:06:56;101863.38;;;18.29;100.00
62031;BME280;62035;52.094;5.112;2023-05-12T08:09:23;101865.63;;;18.49;100.00
62031;BME280;62035;52.094;5.112;2023-05-12T08:11:51;101864.63;;;18.81;100.00
62031;BME280;62035;52.094;5.112;2023-05-12T08:14:18;101863.34;;;18.99;100.00
62031;BME280;62035;52.094;5.112;2023-05-12T08:16:47;101862.56;;;18.91;100.00
62031;BME280;62035;52.094;5.112;2023-05-12T08:19:14;101860.31;;;18.72;100.00
62031;BME280;62035;52.094;5.112;2023-05-12T08:21:43;101866.94;;;18.92;100.00
62031;BME280;62035;52.094;5.112;2023-05-12T08:24:11;101860.75;;;19.06;100.00
62031;BME280;62035;52.094;5.112;2023-05-12T08:26:38;101872.16;;;19.16;100.00
62031;BME280;62035;52.094;5.112;2023-05-12T08:29:06;101865.56;;;19.19;100.00
62031;BME280;62035;52.094;5.112;2023-05-12T08:31:36;101876.75;;;19.30;100.00
62031;BME280;62035;52.094;5.112;2023-05-12T08:34:04;101875.78;;;19.23;100.00
62031;BME280;62035;52.094;5.112;2023-05-12T08:36:32;101877.47;;;19.24;100.00
62031;BME280;62035;52.094;5.112;2023-05-12T08:39:01;101875.78;;;19.46;100.00
62031;BME280;62035;52.094;5.112;2023-05-12T08:41:38;101881.41;;;19.59;100.00
62031;BME280;62035;52.094;5.112;2023-05-12T08:44:10;101879.78;;;20.03;100.00
62031;BME280;62035;52.094;5.112;2023-05-12T08:46:38;101882.41;;;20.11;100.00
62031;BME280;62035;52.094;5.112;2023-05-12T08:49:09;101884.28;;;19.95;100.00
62031;BME280;62035;52.094;5.112;2023-05-12T08:51:42;101883.91;;;19.98;100.00
62031;BME280;62035;52.094;5.112;2023-05-12T08:54:12;101871.13;;;20.07;100.00
62031;BME280;62035;52.094;5.112;2023-05-12T08:56:41;101897.78;;;20.54;100.00
62031;BME280;62035;52.094;5.112;2023-05-12T08:59:12;101886.59;;;20.57;100.00
62031;BME280;62035;52.094;5.112;2023-05-12T09:01:41;101887.88;;;20.97;100.00
62031;BME280;62035;52.094;5.112;2023-05-12T09:04:12;101881.63;;;20.61;100.00
62031;BME280;62035;52.094;5.112;2023-05-12T09:06:41;101886.19;;;20.96;100.00
62031;BME280;62035;52.094;5.112;2023-05-12T09:09:12;101887.38;;;21.30;100.00
62031;BME280;62035;52.094;5.112;2023-05-12T09:11:42;101885.00;;;21.42;100.00
62031;BME280;62035;52.094;5.112;2023-05-12T09:14:17;101887.19;;;21.53;100.00
62031;BME280;62035;52.094;5.112;2023-05-12T09:16:50;101886.41;;;21.38;100.00
62031;BME280;62035;52.094;5.112;2023-05-12T09:19:25;101877.78;;;21.27;100.00
62031;BME280;62035;52.094;5.112;2023-05-12T09:21:52;101891.91;;;20.87;100.00
62031;BME280;62035;52.094;5.112;2023-05-12T09:24:32;101898.03;;;20.74;100.00
62031;BME280;62035;52.094;5.112;2023-05-12T09:27:01;101836.31;;;20.84;100.00
62031;BME280;62035;52.094;5.112;2023-05-12T09:29:30;101891.59;;;20.96;100.00
62031;BME280;62035;52.094;5.112;2023-05-12T09:32:00;101890.25;;;21.07;100.00
62031;BME280;62035;52.094;5.112;2023-05-12T09:34:31;101890.78;;;21.39;100.00
62031;BME280;62035;52.094;5.112;2023-05-12T09:37:02;101886.16;;;21.33;100.00
62031;BME280;62035;52.094;5.112;2023-05-12T09:39:33;101887.44;;;21.15;100.00
62031;BME280;62035;52.094;5.112;2023-05-12T09:42:01;101886.47;;;21.72;100.00
62031;BME280;62035;52.094;5.112;2023-05-12T09:44:30;101903.44;;;21.53;100.00
62031;BME280;62035;52.094;5.112;2023-05-12T09:47:04;101899.31;;;21.63;100.00
62031;BME280;62035;52.094;5.112;2023-05-12T09:49:32;101891.00;;;22.21;100.00
62031;BME280;62035;52.094;5.112;2023-05-12T09:52:03;101903.66;;;22.14;100.00
62031;BME280;62035;52.094;5.112;2023-05-12T09:54:32;101907.06;;;21.94;100.00
62031;BME280;62035;52.094;5.112;2023-05-12T09:57:02;101898.59;;;21.76;100.00
62031;BME280;62035;52.094;5.112;2023-05-12T09:59:31;101912.28;;;21.68;100.00
62031;BME280;62035;52.094;5.112;2023-05-12T10:02:03;101913.97;;;21.69;100.00
62031;BME280;62035;52.094;5.112;2023-05-12T10:04:36;101908.66;;;21.33;100.00
62031;BME280;62035;52.094;5.112;2023-05-12T10:07:11;101909.31;;;21.63;100.00
62031;BME280;62035;52.094;5.112;2023-05-12T10:09:43;101906.44;;;21.92;100.00
62031;BME280;62035;52.094;5.112;2023-05-12T10:12:11;101902.50;;;22.71;100.00
62031;BME280;62035;52.094;5.112;2023-05-12T10:14:39;101910.91;;;22.89;100.00
62031;BME280;62035;52.094;5.112;2023-05-12T10:17:08;101892.56;;;23.04;100.00
62031;BME280;62035;52.094;5.112;2023-05-12T10:19:37;101910.50;;;22.38;100.00
62031;BME280;62035;52.094;5.112;2023-05-12T10:22:09;101910.28;;;22.39;100.00
62031;BME280;62035;52.094;5.112;2023-05-12T10:24:38;101909.22;;;22.40;100.00
62031;BME280;62035;52.094;5.112;2023-05-12T10:27:08;101908.84;;;22.09;100.00
62031;BME280;62035;52.094;5.112;2023-05-12T10:29:38;101903.47;;;22.15;100.00
62031;BME280;62035;52.094;5.112;2023-05-12T10:32:06;101902.31;;;22.31;100.00
62031;BME280;62035;52.094;5.112;2023-05-12T10:34:35;101904.22;;;22.37;100.00
62031;BME280;62035;52.094;5.112;2023-05-12T10:37:04;101906.81;;;22.17;100.00
62031;BME280;62035;52.094;5.112;2023-05-12T10:39:34;101909.66;;;22.37;100.00
62031;BME280;62035;52.094;5.112;2023-05-12T10:42:06;101909.47;;;22.45;100.00
62031;BME280;62035;52.094;5.112;2023-05-12T10:44:35;101900.75;;;23.11;100.00
62031;BME280;62035;52.094;5.112;2023-05-12T10:47:13;101918.47;;;23.00;100.00
62031;BME280;62035;52.094;5.112;2023-05-12T10:49:41;101908.50;;;23.40;100.00
62031;BME280;62035;52.094;5.112;2023-05-12T10:52:10;101907.47;;;23.94;100.00
62031;BME280;62035;52.094;5.112;2023-05-12T10:54:39;101911.59;;;24.03;100.00
62031;BME280;62035;52.094;5.112;2023-05-12T10:57:15;101913.09;;;23.99;100.00
62031;BME280;62035;52.094;5.112;2023-05-12T10:59:47;101909.16;;;23.62;100.00
62031;BME280;62035;52.094;5.112;2023-05-12T11:02:16;101900.06;;;22.95;100.00
62031;BME280;62035;52.094;5.112;2023-05-12T11:04:47;101914.59;;;22.75;100.00
62031;BME280;62035;52.094;5.112;2023-05-12T11:07:19;101903.03;;;23.27;100.00
62031;BME280;62035;52.094;5.112;2023-05-12T11:09:48;101892.41;;;23.19;100.00
62031;BME280;62035;52.094;5.112;2023-05-12T11:12:18;101901.69;;;22.83;100.00
62031;BME280;62035;52.094;5.112;2023-05-12T11:14:46;101913.56;;;22.76;100.00
62031;BME280;62035;52.094;5.112;2023-05-12T11:17:14;101910.41;;;22.66;100.00
62031;BME280;62035;52.094;5.112;2023-05-12T11:19:44;101911.19;;;22.59;100.00
62031;BME280;62035;52.094;5.112;2023-05-12T11:22:16;101910.00;;;22.69;100.00
62031;BME280;62035;52.094;5.112;2023-05-12T11:24:45;101912.50;;;22.70;100.00
62031;BME280;62035;52.094;5.112;2023-05-12T11:27:15;101913.69;;;23.28;100.00
62031;BME280;62035;52.094;5.112;2023-05-12T11:29:55;101908.53;;;23.60;100.00
62031;BME280;62035;52.094;5.112;2023-05-12T11:32:23;101912.28;;;23.72;100.00
62031;BME280;62035;52.094;5.112;2023-05-12T11:34:51;101906.00;;;23.45;100.00
62031;BME280;62035;52.094;5.112;2023-05-12T11:37:18;101920.59;;;23.31;100.00
62031;BME280;62035;52.094;5.112;2023-05-12T11:39:46;101911.44;;;23.65;100.00
62031;BME280;62035;52.094;5.112;2023-05-12T11:42:14;101915.84;;;23.79;100.00
62031;BME280;62035;52.094;5.112;2023-05-12T11:44:47;101918.13;;;23.69;98.81
62031;BME280;62035;52.094;5.112;2023-05-12T11:47:16;101914.41;;;23.57;98.59
62031;BME280;62035;52.094;5.112;2023-05-12T11:49:47;101926.09;;;23.71;100.00
62031;BME280;62035;52.094;5.112;2023-05-12T11:52:16;101922.97;;;24.65;90.57
62031;BME280;62035;52.094;5.112;2023-05-12T11:54:47;101926.72;;;24.70;87.27
62031;BME280;62035;52.094;5.112;2023-05-12T11:57:24;101935.38;;;24.92;87.86
62031;BME280;62035;52.094;5.112;2023-05-12T11:59:58;101917.31;;;24.66;96.17
62031;BME280;62035;52.094;5.112;2023-05-12T12:02:27;101923.25;;;24.88;90.93
62031;BME280;62035;52.094;5.112;2023-05-12T12:04:55;101921.91;;;25.10;91.00
62031;BME280;62035;52.094;5.112;2023-05-12T12:07:29;101927.84;;;25.01;91.99
62031;BME280;62035;52.094;5.112;2023-05-12T12:09:58;101922.25;;;24.38;96.22
62031;BME280;62035;52.094;5.112;2023-05-12T12:12:37;101918.28;;;24.27;96.40
62031;BME280;62035;52.094;5.112;2023-05-12T12:15:07;101930.13;;;25.35;89.37
62031;BME280;62035;52.094;5.112;2023-05-12T12:17:35;101910.06;;;25.54;88.82
62031;BME280;62035;52.094;5.112;2023-05-12T12:20:05;101927.00;;;25.00;89.73
62031;BME280;62035;52.094;5.112;2023-05-12T12:22:33;101921.78;;;24.41;90.19
62031;BME280;62035;52.094;5.112;2023-05-12T12:25:01;101917.66;;;24.25;94.21
62031;BME280;62035;52.094;5.112;2023-05-12T12:27:30;101929.16;;;24.20;93.54
62031;BME280;62035;52.094;5.112;2023-05-12T12:29:57;101933.50;;;24.48;92.08
62031;BME280;62035;52.094;5.112;2023-05-12T12:32:26;101940.63;;;25.32;85.49
62031;BME280;62035;52.094;5.112;2023-05-12T12:34:54;101938.59;;;26.02;80.05
62031;BME280;62035;52.094;5.112;2023-05-12T12:37:24;101938.75;;;25.88;76.17
62031;BME280;62035;52.094;5.112;2023-05-12T12:39:52;101947.06;;;25.44;77.77
62031;BME280;62035;52.094;5.112;2023-05-12T12:42:19;101943.69;;;25.17;82.67
62031;BME280;62035;52.094;5.112;2023-05-12T12:44:47;101937.19;;;25.99;77.62
62031;BME280;62035;52.094;5.112;2023-05-12T12:47:16;101937.63;;;26.14;77.67